createdAt,value
2022-11-09T00:00:41.507Z,0.00
2022-11-09T00:01:40.637Z,0.00
2022-11-09T00:02:43.940Z,0.00
2022-11-09T00:03:40.952Z,0.00
2022-11-09T00:04:41.132Z,0.00
2022-11-09T00:05:41.258Z,0.00
2022-11-09T00:06:40.524Z,0.00
2022-11-09T00:07:40.418Z,0.00
2022-11-09T00:08:40.573Z,0.00
2022-11-09T00:09:40.785Z,0.00
2022-11-09T00:10:41.095Z,0.00
2022-11-09T00:11:41.002Z,0.00
2022-11-09T00:12:41.155Z,0.00
2022-11-09T00:13:40.273Z,0.00
2022-11-09T00:14:40.467Z,0.00
2022-11-09T00:15:40.773Z,0.00
2022-11-09T00:16:40.429Z,0.00
2022-11-09T00:17:40.311Z,0.00
2022-11-09T00:18:40.501Z,0.00
2022-11-09T00:19:40.694Z,0.00
2022-11-09T00:20:45.965Z,0.00
2022-11-09T00:21:42.291Z,0.00
2022-11-09T00:22:40.453Z,0.00
2022-11-09T00:23:40.566Z,0.00
2022-11-09T00:24:40.724Z,0.00
2022-11-09T00:25:40.215Z,0.00
2022-11-09T00:26:40.373Z,0.00
2022-11-09T00:27:40.643Z,0.00
2022-11-09T00:28:40.653Z,0.00
2022-11-09T00:29:40.793Z,0.00
2022-11-09T00:30:40.953Z,0.00
2022-11-09T00:31:41.117Z,0.00
2022-11-09T00:32:40.245Z,0.00
2022-11-09T00:33:40.445Z,0.00
2022-11-09T00:34:40.601Z,0.00
2022-11-09T00:35:40.298Z,0.00
2022-11-09T00:36:40.479Z,0.00
2022-11-09T00:37:40.611Z,0.00
2022-11-09T00:38:40.756Z,0.00
2022-11-09T00:39:39.995Z,0.00
2022-11-09T00:40:41.100Z,0.00
2022-11-09T00:41:40.307Z,0.00
2022-11-09T00:42:40.465Z,0.00
2022-11-09T00:43:40.646Z,0.00
2022-11-09T00:44:40.826Z,0.00
2022-11-09T00:45:39.940Z,0.00
2022-11-09T00:46:40.120Z,0.00
2022-11-09T00:47:40.281Z,0.00
2022-11-09T00:48:40.438Z,0.00
2022-11-09T00:49:40.647Z,0.00
2022-11-09T00:50:40.835Z,0.00
2022-11-09T00:51:39.911Z,0.00
2022-11-09T00:52:40.088Z,0.00
2022-11-09T00:53:40.234Z,0.00
2022-11-09T00:54:40.414Z,0.00
2022-11-09T00:55:40.600Z,0.00
2022-11-09T00:56:39.778Z,0.00
2022-11-09T00:57:40.870Z,0.00
2022-11-09T00:58:40.109Z,0.00
2022-11-09T00:59:40.285Z,0.00
2022-11-09T01:00:40.484Z,0.00
2022-11-09T01:01:39.648Z,0.00
2022-11-09T01:02:39.799Z,0.00
2022-11-09T01:03:39.994Z,0.00
2022-11-09T01:04:41.253Z,0.00
2022-11-09T01:05:40.409Z,0.00
2022-11-09T01:06:40.659Z,0.00
2022-11-09T01:07:39.728Z,0.00
2022-11-09T01:08:39.968Z,0.00
2022-11-09T01:09:40.078Z,0.00
2022-11-09T01:10:40.256Z,0.00
2022-11-09T01:11:40.397Z,0.00
2022-11-09T01:12:40.601Z,0.00
2022-11-09T01:13:39.724Z,0.00
2022-11-09T01:14:40.811Z,0.00
2022-11-09T01:15:39.879Z,0.00
2022-11-09T01:16:40.082Z,0.00
2022-11-09T01:17:40.239Z,0.00
2022-11-09T01:18:39.483Z,0.00
2022-11-09T01:19:39.650Z,0.00
2022-11-09T01:20:39.862Z,0.00
2022-11-09T01:21:39.991Z,0.00
2022-11-09T01:22:41.101Z,0.00
2022-11-09T01:23:40.310Z,0.00
2022-11-09T01:24:40.471Z,0.00
2022-11-09T01:25:40.689Z,0.00
2022-11-09T01:26:39.782Z,0.00
2022-11-09T01:27:39.952Z,0.00
2022-11-09T01:28:40.131Z,0.00
2022-11-09T01:29:40.304Z,0.00
2022-11-09T01:30:39.438Z,0.00
2022-11-09T01:31:39.922Z,0.00
2022-11-09T01:32:39.752Z,0.00
2022-11-09T01:33:39.910Z,0.00
2022-11-09T01:34:40.063Z,0.00
2022-11-09T01:35:39.180Z,0.00
2022-11-09T01:36:39.355Z,0.00
2022-11-09T01:37:39.548Z,0.00
2022-11-09T01:38:39.664Z,0.00
2022-11-09T01:39:39.808Z,0.00
2022-11-09T01:40:40.040Z,0.00
2022-11-09T01:41:39.660Z,0.00
2022-11-09T01:42:39.803Z,0.00
2022-11-09T01:43:40.433Z,0.00
2022-11-09T01:44:40.149Z,0.00
2022-11-09T01:45:39.274Z,0.00
2022-11-09T01:46:39.558Z,0.00
2022-11-09T01:47:39.631Z,0.00
2022-11-09T01:48:39.778Z,0.00
2022-11-09T01:49:39.945Z,0.00
2022-11-09T01:50:39.086Z,0.00
2022-11-09T01:51:39.285Z,0.00
2022-11-09T01:52:39.454Z,0.00
2022-11-09T01:53:39.773Z,0.00
2022-11-09T01:54:39.806Z,0.00
2022-11-09T01:55:38.984Z,0.00
2022-11-09T01:56:39.179Z,0.00
2022-11-09T01:57:39.335Z,0.00
2022-11-09T01:58:39.046Z,0.00
2022-11-09T01:59:39.220Z,0.00
2022-11-09T02:00:39.356Z,0.00
2022-11-09T02:01:39.564Z,0.00
2022-11-09T02:02:39.695Z,0.00
2022-11-09T02:03:39.829Z,0.00
2022-11-09T02:04:39.060Z,0.00
2022-11-09T02:05:39.340Z,0.00
2022-11-09T02:06:39.466Z,0.00
2022-11-09T02:07:38.891Z,0.00
2022-11-09T02:08:39.024Z,0.00
2022-11-09T02:09:40.226Z,0.00
2022-11-09T02:10:39.324Z,0.00
2022-11-09T02:11:38.905Z,0.00
2022-11-09T02:12:38.921Z,0.00
2022-11-09T02:13:39.065Z,0.00
2022-11-09T02:14:39.226Z,0.00
2022-11-09T02:15:45.262Z,0.00
2022-11-09T02:16:40.659Z,0.00
2022-11-09T02:17:38.698Z,0.00
2022-11-09T02:18:38.856Z,0.00
2022-11-09T02:19:39.015Z,0.00
2022-11-09T02:20:38.677Z,0.00
2022-11-09T02:21:38.846Z,0.00
2022-11-09T02:22:39.016Z,0.00
2022-11-09T02:23:39.141Z,0.00
2022-11-09T02:24:39.301Z,0.00
2022-11-09T02:25:39.470Z,0.00
2022-11-09T02:26:38.816Z,0.00
2022-11-09T02:27:38.980Z,0.00
2022-11-09T02:28:39.356Z,0.00
2022-11-09T02:29:39.352Z,0.00
2022-11-09T02:30:39.538Z,0.00
2022-11-09T02:31:39.609Z,0.00
2022-11-09T02:32:38.628Z,0.00
2022-11-09T02:33:38.811Z,0.00
2022-11-09T02:34:39.034Z,0.00
2022-11-09T02:35:39.179Z,0.00
2022-11-09T02:36:39.388Z,0.00
2022-11-09T02:37:38.536Z,0.00
2022-11-09T02:38:38.727Z,0.00
2022-11-09T02:39:38.903Z,0.00
2022-11-09T02:40:39.125Z,0.00
2022-11-09T02:41:39.249Z,0.00
2022-11-09T02:42:38.431Z,0.00
2022-11-09T02:43:38.577Z,0.00
2022-11-09T02:44:38.752Z,0.00
2022-11-09T02:45:38.960Z,0.00
2022-11-09T02:46:39.210Z,0.00
2022-11-09T02:47:38.318Z,0.00
2022-11-09T02:48:38.543Z,0.00
2022-11-09T02:49:38.737Z,0.00
2022-11-09T02:50:38.922Z,0.00
2022-11-09T02:51:39.104Z,0.00
2022-11-09T02:52:38.293Z,0.00
2022-11-09T02:53:38.442Z,0.00
2022-11-09T02:54:38.630Z,0.00
2022-11-09T02:55:38.821Z,0.00
2022-11-09T02:56:39.000Z,0.00
2022-11-09T02:57:39.231Z,0.00
2022-11-09T02:58:38.201Z,0.00
2022-11-09T02:59:38.393Z,0.00
2022-11-09T03:00:38.604Z,0.00
2022-11-09T03:01:38.155Z,0.00
2022-11-09T03:02:38.303Z,0.00
2022-11-09T03:03:38.547Z,0.00
2022-11-09T03:04:38.721Z,0.00
2022-11-09T03:05:38.903Z,0.00
2022-11-09T03:06:39.145Z,0.00
2022-11-09T03:07:38.236Z,0.00
2022-11-09T03:08:38.415Z,0.00
2022-11-09T03:09:38.727Z,0.00
2022-11-09T03:10:38.817Z,0.00
2022-11-09T03:11:38.092Z,0.00
2022-11-09T03:12:38.297Z,0.00
2022-11-09T03:13:38.464Z,0.00
2022-11-09T03:14:38.664Z,0.00
2022-11-09T03:15:38.963Z,0.00
2022-11-09T03:16:38.007Z,0.00
2022-11-09T03:17:38.188Z,0.00
2022-11-09T03:18:38.397Z,0.00
2022-11-09T03:19:38.543Z,0.00
2022-11-09T03:20:37.973Z,0.00
2022-11-09T03:21:38.173Z,0.00
2022-11-09T03:22:38.285Z,0.00
2022-11-09T03:23:39.432Z,0.00
2022-11-09T03:24:38.652Z,0.00
2022-11-09T03:25:38.838Z,0.00
2022-11-09T03:26:38.927Z,0.00
2022-11-09T03:27:38.156Z,0.00
2022-11-09T03:28:38.253Z,0.00
2022-11-09T03:29:38.424Z,0.00
2022-11-09T03:30:38.583Z,0.00
2022-11-09T03:31:37.731Z,0.00
2022-11-09T03:32:37.933Z,0.00
2022-11-09T03:33:38.622Z,0.00
2022-11-09T03:34:38.247Z,0.00
2022-11-09T03:35:38.455Z,0.00
2022-11-09T03:36:38.654Z,0.00
2022-11-09T03:37:37.819Z,0.00
2022-11-09T03:38:37.986Z,0.00
2022-11-09T03:39:37.682Z,0.00
2022-11-09T03:40:37.845Z,0.00
2022-11-09T03:41:38.033Z,0.00
2022-11-09T03:42:37.601Z,0.00
2022-11-09T03:43:37.748Z,0.00
2022-11-09T03:44:37.948Z,0.00
2022-11-09T03:45:38.121Z,0.00
2022-11-09T03:46:38.257Z,0.00
2022-11-09T03:47:38.805Z,0.00
2022-11-09T03:48:37.590Z,0.00
2022-11-09T03:49:37.472Z,0.00
2022-11-09T03:50:37.669Z,0.00
2022-11-09T03:51:37.807Z,0.00
2022-11-09T03:52:37.969Z,0.00
2022-11-09T03:53:39.097Z,0.00
2022-11-09T03:54:38.318Z,0.00
2022-11-09T03:55:37.448Z,0.00
2022-11-09T03:56:37.650Z,0.00
2022-11-09T03:57:37.808Z,0.00
2022-11-09T03:58:37.987Z,0.00
2022-11-09T03:59:38.172Z,0.00
2022-11-09T04:00:37.309Z,0.00
2022-11-09T04:01:37.567Z,0.00
2022-11-09T04:02:37.729Z,0.00
2022-11-09T04:03:37.320Z,0.00
2022-11-09T04:04:37.500Z,0.00
2022-11-09T04:05:37.293Z,0.00
2022-11-09T04:06:37.563Z,0.00
2022-11-09T04:07:37.710Z,0.00
2022-11-09T04:08:37.973Z,0.00
2022-11-09T04:09:37.125Z,0.00
2022-11-09T04:10:37.320Z,0.00
2022-11-09T04:11:37.193Z,0.00
2022-11-09T04:12:37.411Z,0.00
2022-11-09T04:13:37.637Z,0.00
2022-11-09T04:14:37.983Z,0.00
2022-11-09T04:15:38.100Z,0.00
2022-11-09T04:16:37.128Z,0.00
2022-11-09T04:17:37.318Z,0.00
2022-11-09T04:18:37.530Z,0.00
2022-11-09T04:19:37.709Z,0.00
2022-11-09T04:20:37.374Z,0.00
2022-11-09T04:21:37.245Z,0.00
2022-11-09T04:22:37.364Z,0.00
2022-11-09T04:23:38.458Z,0.00
2022-11-09T04:24:37.639Z,0.00
2022-11-09T04:25:36.999Z,0.00
2022-11-09T04:26:37.192Z,0.00
2022-11-09T04:27:37.310Z,0.00
2022-11-09T04:28:38.445Z,0.00
2022-11-09T04:29:37.635Z,0.00
2022-11-09T04:30:37.813Z,0.00
2022-11-09T04:31:36.953Z,0.00
2022-11-09T04:32:37.123Z,0.00
2022-11-09T04:33:37.300Z,0.00
2022-11-09T04:34:37.425Z,0.00
2022-11-09T04:35:37.574Z,0.00
2022-11-09T04:36:37.735Z,0.00
2022-11-09T04:37:37.033Z,0.00
2022-11-09T04:38:37.525Z,0.00
2022-11-09T04:39:37.318Z,0.00
2022-11-09T04:40:37.472Z,0.00
2022-11-09T04:41:37.615Z,0.00
2022-11-09T04:42:37.793Z,0.00
2022-11-09T04:43:36.932Z,0.00
2022-11-09T04:44:37.109Z,0.00
2022-11-09T04:45:37.225Z,0.00
2022-11-09T04:46:37.395Z,0.00
2022-11-09T04:47:37.561Z,0.00
2022-11-09T04:48:36.705Z,0.00
2022-11-09T04:49:37.836Z,0.00
2022-11-09T04:50:36.864Z,0.00
2022-11-09T04:51:36.841Z,0.00
2022-11-09T04:52:37.016Z,0.00
2022-11-09T04:53:37.156Z,0.00
2022-11-09T04:54:37.315Z,0.00
2022-11-09T04:55:37.517Z,0.00
2022-11-09T04:56:37.670Z,0.00
2022-11-09T04:57:37.739Z,0.00
2022-11-09T04:58:36.959Z,0.00
2022-11-09T04:59:37.127Z,0.00
2022-11-09T05:00:37.294Z,0.00
2022-11-09T05:01:37.475Z,0.00
2022-11-09T05:02:36.569Z,0.00
2022-11-09T05:03:36.848Z,0.00
2022-11-09T05:04:36.868Z,0.00
2022-11-09T05:05:37.024Z,0.00
2022-11-09T05:06:37.363Z,0.00
2022-11-09T05:07:37.425Z,0.00
2022-11-09T05:08:36.464Z,0.00
2022-11-09T05:09:36.616Z,0.00
2022-11-09T05:10:36.794Z,0.00
2022-11-09T05:11:36.941Z,0.00
2022-11-09T05:12:37.087Z,0.00
2022-11-09T05:13:37.297Z,0.00
2022-11-09T05:14:37.377Z,0.00
2022-11-09T05:15:36.520Z,0.00
2022-11-09T05:16:36.672Z,0.00
2022-11-09T05:17:36.821Z,0.00
2022-11-09T05:18:36.977Z,0.00
2022-11-09T05:19:37.232Z,0.00
2022-11-09T05:20:36.279Z,0.00
2022-11-09T05:21:36.428Z,0.00
2022-11-09T05:22:36.597Z,0.00
2022-11-09T05:23:37.729Z,0.00
2022-11-09T05:24:36.976Z,0.00
2022-11-09T05:25:36.139Z,0.00
2022-11-09T05:26:36.303Z,0.00
2022-11-09T05:27:36.512Z,0.00
2022-11-09T05:28:36.640Z,0.00
2022-11-09T05:29:36.807Z,0.00
2022-11-09T05:30:37.158Z,0.00
2022-11-09T05:31:36.110Z,0.00
2022-11-09T05:32:36.310Z,0.00
2022-11-09T05:33:36.458Z,0.00
2022-11-09T05:34:36.635Z,0.00
2022-11-09T05:35:36.209Z,0.00
2022-11-09T05:36:36.432Z,0.00
2022-11-09T05:37:36.539Z,0.00
2022-11-09T05:38:36.690Z,0.00
2022-11-09T05:39:36.851Z,0.00
2022-11-09T05:40:35.963Z,0.00
2022-11-09T05:41:36.143Z,0.00
2022-11-09T05:42:36.484Z,0.00
2022-11-09T05:43:36.450Z,0.00
2022-11-09T05:44:36.595Z,0.00
2022-11-09T05:45:42.698Z,0.00
2022-11-09T05:46:36.870Z,0.00
2022-11-09T05:47:36.047Z,0.00
2022-11-09T05:48:36.229Z,0.00
2022-11-09T05:49:36.376Z,0.00
2022-11-09T05:50:36.534Z,0.00
2022-11-09T05:51:36.710Z,0.00
2022-11-09T05:52:35.861Z,0.00
2022-11-09T05:53:36.969Z,0.00
2022-11-09T05:54:36.212Z,0.00
2022-11-09T05:55:36.374Z,0.00
2022-11-09T05:56:36.621Z,0.00
2022-11-09T05:57:36.701Z,0.00
2022-11-09T05:58:35.831Z,0.00
2022-11-09T05:59:36.019Z,0.00
2022-11-09T06:00:36.223Z,0.00
2022-11-09T06:01:36.347Z,0.00
2022-11-09T06:02:37.588Z,0.00
2022-11-09T06:03:35.695Z,0.00
2022-11-09T06:04:35.852Z,0.00
2022-11-09T06:05:36.053Z,0.00
2022-11-09T06:06:36.286Z,0.00
2022-11-09T06:07:37.388Z,0.00
2022-11-09T06:08:36.502Z,0.00
2022-11-09T06:09:35.637Z,0.00
2022-11-09T06:10:35.787Z,0.00
2022-11-09T06:11:35.960Z,0.00
2022-11-09T06:12:36.166Z,0.00
2022-11-09T06:13:36.302Z,0.00
2022-11-09T06:14:36.483Z,0.00
2022-11-09T06:15:35.635Z,0.00
2022-11-09T06:16:35.819Z,0.00
2022-11-09T06:17:35.919Z,0.00
2022-11-09T06:18:36.125Z,0.00
2022-11-09T06:19:36.265Z,0.00
2022-11-09T06:20:36.405Z,0.00
2022-11-09T06:21:35.537Z,0.00
2022-11-09T06:22:35.685Z,0.00
2022-11-09T06:23:36.823Z,0.00
2022-11-09T06:24:36.258Z,0.00
2022-11-09T06:25:36.241Z,0.00
2022-11-09T06:26:35.351Z,0.00
2022-11-09T06:27:35.503Z,0.00
2022-11-09T06:28:35.679Z,0.00
2022-11-09T06:29:35.835Z,0.00
2022-11-09T06:30:36.040Z,0.00
2022-11-09T06:31:36.177Z,0.00
2022-11-09T06:32:36.350Z,0.00
2022-11-09T06:33:35.451Z,0.00
2022-11-09T06:34:35.620Z,0.00
2022-11-09T06:35:36.727Z,0.00
2022-11-09T06:36:36.010Z,0.00
2022-11-09T06:37:36.290Z,0.00
2022-11-09T06:38:35.258Z,0.00
2022-11-09T06:39:35.408Z,0.00
2022-11-09T06:40:35.684Z,0.00
2022-11-09T06:41:35.803Z,0.00
2022-11-09T06:42:36.053Z,0.00
2022-11-09T06:43:35.109Z,5.62
2022-11-09T06:44:35.248Z,5.62
2022-11-09T06:45:35.427Z,5.62
2022-11-09T06:46:35.629Z,5.62
2022-11-09T06:47:35.745Z,5.62
2022-11-09T06:48:36.396Z,5.62
2022-11-09T06:49:36.099Z,5.62
2022-11-09T06:50:35.215Z,5.62
2022-11-09T06:51:35.378Z,5.62
2022-11-09T06:52:35.668Z,5.62
2022-11-09T06:53:35.755Z,5.62
2022-11-09T06:54:35.939Z,5.62
2022-11-09T06:55:35.059Z,5.62
2022-11-09T06:56:35.249Z,11.25
2022-11-09T06:57:35.452Z,11.25
2022-11-09T06:58:35.640Z,11.25
2022-11-09T06:59:35.810Z,16.88
2022-11-09T07:00:34.989Z,16.88
2022-11-09T07:01:35.197Z,16.88
2022-11-09T07:02:35.339Z,16.88
2022-11-09T07:03:35.491Z,22.50
2022-11-09T07:04:35.631Z,22.50
2022-11-09T07:05:35.830Z,22.50
2022-11-09T07:06:36.009Z,22.50
2022-11-09T07:07:35.132Z,28.12
2022-11-09T07:08:35.288Z,28.12
2022-11-09T07:09:35.455Z,28.12
2022-11-09T07:10:35.621Z,28.12
2022-11-09T07:11:35.871Z,28.12
2022-11-09T07:12:34.937Z,28.12
2022-11-09T07:13:35.106Z,28.12
2022-11-09T07:14:35.280Z,33.75
2022-11-09T07:15:35.434Z,33.75
2022-11-09T07:16:35.633Z,33.75
2022-11-09T07:17:34.802Z,33.75
2022-11-09T07:18:34.917Z,33.75
2022-11-09T07:19:35.106Z,39.38
2022-11-09T07:20:35.245Z,33.75
2022-11-09T07:21:35.414Z,33.75
2022-11-09T07:22:35.605Z,39.38
2022-11-09T07:23:37.726Z,39.38
2022-11-09T07:24:34.892Z,45.00
2022-11-09T07:25:35.024Z,45.00
2022-11-09T07:26:35.177Z,50.62
2022-11-09T07:27:35.332Z,50.62
2022-11-09T07:28:35.862Z,50.62
2022-11-09T07:29:34.630Z,56.25
2022-11-09T07:30:34.819Z,56.25
2022-11-09T07:31:34.963Z,56.25
2022-11-09T07:33:06.773Z,56.25
2022-11-09T07:33:36.288Z,56.25
2022-11-09T07:34:35.445Z,56.25
2022-11-09T07:35:34.552Z,56.25
2022-11-09T07:36:34.724Z,56.25
2022-11-09T07:37:34.908Z,56.25
2022-11-09T07:38:35.035Z,56.25
2022-11-09T07:39:35.226Z,56.25
2022-11-09T07:40:35.353Z,61.88
2022-11-09T07:41:35.529Z,67.50
2022-11-09T07:42:34.632Z,73.12
2022-11-09T07:43:34.786Z,73.12
2022-11-09T07:44:34.925Z,84.38
2022-11-09T07:45:35.125Z,90.00
2022-11-09T07:46:35.239Z,101.25
2022-11-09T07:47:34.332Z,106.88
2022-11-09T07:48:34.496Z,101.25
2022-11-09T07:49:34.674Z,101.25
2022-11-09T07:50:34.846Z,106.88
2022-11-09T07:51:35.134Z,106.88
2022-11-09T07:52:35.158Z,101.25
2022-11-09T07:53:35.215Z,95.62
2022-11-09T07:54:34.463Z,101.25
2022-11-09T07:55:34.595Z,95.62
2022-11-09T07:56:34.759Z,95.62
2022-11-09T07:57:34.961Z,95.62
2022-11-09T07:58:35.068Z,95.62
2022-11-09T07:59:35.247Z,106.88
2022-11-09T08:00:34.376Z,118.12
2022-11-09T08:01:34.570Z,118.12
2022-11-09T08:02:34.715Z,106.88
2022-11-09T08:03:34.878Z,106.88
2022-11-09T08:04:34.937Z,106.88
2022-11-09T08:05:35.069Z,112.50
2022-11-09T08:06:34.225Z,112.50
2022-11-09T08:07:34.337Z,112.50
2022-11-09T08:08:34.514Z,106.88
2022-11-09T08:09:34.694Z,118.12
2022-11-09T08:10:34.805Z,118.12
2022-11-09T08:11:34.972Z,118.12
2022-11-09T08:12:37.098Z,123.75
2022-11-09T08:13:34.168Z,129.38
2022-11-09T08:14:34.317Z,135.00
2022-11-09T08:15:34.508Z,129.38
2022-11-09T08:16:37.686Z,123.75
2022-11-09T08:17:34.753Z,123.75
2022-11-09T08:18:33.844Z,123.75
2022-11-09T08:19:34.077Z,129.38
2022-11-09T08:20:34.237Z,123.75
2022-11-09T08:21:34.478Z,135.00
2022-11-09T08:22:34.589Z,146.25
2022-11-09T08:23:34.802Z,129.38
2022-11-09T08:24:33.875Z,123.75
2022-11-09T08:25:34.037Z,129.38
2022-11-09T08:26:34.213Z,129.38
2022-11-09T08:27:34.388Z,140.62
2022-11-09T08:28:34.549Z,146.25
2022-11-09T08:29:34.687Z,146.25
2022-11-09T08:30:34.840Z,140.62
2022-11-09T08:31:35.022Z,129.38
2022-11-09T08:32:34.145Z,135.00
2022-11-09T08:33:34.917Z,135.00
2022-11-09T08:34:34.496Z,140.62
2022-11-09T08:35:34.677Z,140.62
2022-11-09T08:36:33.847Z,174.38
2022-11-09T08:37:33.980Z,180.00
2022-11-09T08:38:34.166Z,180.00
2022-11-09T08:39:34.368Z,168.75
2022-11-09T08:40:34.529Z,174.38
2022-11-09T08:41:34.688Z,185.62
2022-11-09T08:42:33.831Z,185.62
2022-11-09T08:43:33.993Z,180.00
2022-11-09T08:44:34.179Z,185.62
2022-11-09T08:45:34.548Z,163.12
2022-11-09T08:46:39.892Z,196.88
2022-11-09T08:47:34.609Z,202.50
2022-11-09T08:48:33.779Z,140.62
2022-11-09T08:49:33.932Z,196.88
2022-11-09T08:50:34.115Z,196.88
2022-11-09T08:51:34.314Z,191.25
2022-11-09T08:52:34.409Z,185.62
2022-11-09T08:53:34.575Z,140.62
2022-11-09T08:54:33.695Z,174.38
2022-11-09T08:55:33.874Z,174.38
2022-11-09T08:56:34.035Z,180.00
2022-11-09T08:57:34.263Z,174.38
2022-11-09T08:58:34.332Z,135.00
2022-11-09T08:59:33.449Z,174.38
2022-11-09T09:00:33.604Z,180.00
2022-11-09T09:01:33.809Z,191.25
2022-11-09T09:02:33.922Z,196.88
2022-11-09T09:03:34.105Z,168.75
2022-11-09T09:04:34.249Z,196.88
2022-11-09T09:05:33.412Z,202.50
2022-11-09T09:06:34.644Z,191.25
2022-11-09T09:07:33.720Z,174.38
2022-11-09T09:08:33.857Z,168.75
2022-11-09T09:09:34.094Z,157.50
2022-11-09T09:10:34.164Z,185.62
2022-11-09T09:11:33.298Z,202.50
2022-11-09T09:12:33.432Z,219.38
2022-11-09T09:13:34.052Z,219.38
2022-11-09T09:14:33.723Z,208.12
2022-11-09T09:15:33.944Z,213.75
2022-11-09T09:16:34.059Z,213.75
2022-11-09T09:17:33.178Z,196.88
2022-11-09T09:18:33.325Z,191.25
2022-11-09T09:19:33.504Z,191.25
2022-11-09T09:20:33.645Z,213.75
2022-11-09T09:21:33.793Z,196.88
2022-11-09T09:22:33.932Z,213.75
2022-11-09T09:23:35.047Z,202.50
2022-11-09T09:24:33.211Z,213.75
2022-11-09T09:25:33.367Z,202.50
2022-11-09T09:26:33.505Z,163.12
2022-11-09T09:27:33.706Z,202.50
2022-11-09T09:28:33.784Z,168.75
2022-11-09T09:29:32.900Z,180.00
2022-11-09T09:30:33.057Z,180.00
2022-11-09T09:31:33.194Z,191.25
2022-11-09T09:32:33.336Z,168.75
2022-11-09T09:33:33.525Z,185.62
2022-11-09T09:34:33.675Z,191.25
2022-11-09T09:35:33.883Z,191.25
2022-11-09T09:36:32.969Z,196.88
2022-11-09T09:37:33.169Z,185.62
2022-11-09T09:38:33.269Z,180.00
2022-11-09T09:39:33.525Z,180.00
2022-11-09T09:40:33.556Z,174.38
2022-11-09T09:41:33.735Z,168.75
2022-11-09T09:42:33.895Z,163.12
2022-11-09T09:43:32.995Z,163.12
2022-11-09T09:44:33.116Z,151.88
2022-11-09T09:45:33.302Z,146.25
2022-11-09T09:46:37.256Z,151.88
2022-11-09T09:47:33.527Z,151.88
2022-11-09T09:48:32.615Z,151.88
2022-11-09T09:49:32.777Z,151.88
2022-11-09T09:50:33.031Z,157.50
2022-11-09T09:51:33.079Z,180.00
2022-11-09T09:52:33.271Z,191.25
2022-11-09T09:53:33.372Z,213.75
2022-11-09T09:54:33.521Z,219.38
2022-11-09T09:55:32.599Z,230.62
2022-11-09T09:56:32.750Z,213.75
2022-11-09T09:57:36.442Z,213.75
2022-11-09T09:58:34.040Z,202.50
2022-11-09T09:59:33.194Z,196.88
2022-11-09T10:00:33.332Z,196.88
2022-11-09T10:01:33.421Z,168.75
2022-11-09T10:02:33.781Z,168.75
2022-11-09T10:03:32.644Z,174.38
2022-11-09T10:04:32.854Z,196.88
2022-11-09T10:05:32.938Z,174.38
2022-11-09T10:06:33.090Z,196.88
2022-11-09T10:07:33.200Z,202.50
2022-11-09T10:08:33.400Z,202.50
2022-11-09T10:09:32.489Z,208.12
2022-11-09T10:10:32.642Z,196.88
2022-11-09T10:11:32.779Z,196.88
2022-11-09T10:12:32.955Z,202.50
2022-11-09T10:13:33.070Z,202.50
2022-11-09T10:14:33.254Z,208.12
2022-11-09T10:15:33.397Z,196.88
2022-11-09T10:16:32.494Z,202.50
2022-11-09T10:17:32.635Z,208.12
2022-11-09T10:18:32.771Z,219.38
2022-11-09T10:19:32.916Z,208.12
2022-11-09T10:20:33.106Z,202.50
2022-11-09T10:21:33.199Z,202.50
2022-11-09T10:22:33.410Z,202.50
2022-11-09T10:23:32.459Z,202.50
2022-11-09T10:24:32.591Z,213.75
2022-11-09T10:25:57.628Z,219.38
2022-11-09T10:26:33.927Z,219.38
2022-11-09T10:27:33.001Z,202.50
2022-11-09T10:28:54.207Z,185.62
2022-11-09T10:29:33.224Z,185.62
2022-11-09T10:30:32.391Z,196.88
2022-11-09T10:31:32.549Z,191.25
2022-11-09T10:32:32.728Z,185.62
2022-11-09T10:33:32.815Z,168.75
2022-11-09T10:34:32.962Z,168.75
2022-11-09T10:35:32.071Z,168.75
2022-11-09T10:36:32.212Z,174.38
2022-11-09T10:37:32.332Z,180.00
2022-11-09T10:38:32.513Z,191.25
2022-11-09T10:39:32.595Z,174.38
2022-11-09T10:40:32.757Z,163.12
2022-11-09T10:41:32.892Z,163.12
2022-11-09T10:42:32.023Z,163.12
2022-11-09T10:43:32.147Z,157.50
2022-11-09T10:44:32.332Z,168.75
2022-11-09T10:45:32.453Z,157.50
2022-11-09T10:46:32.555Z,157.50
2022-11-09T10:47:32.691Z,151.88
2022-11-09T10:48:32.831Z,146.25
2022-11-09T10:49:31.955Z,146.25
2022-11-09T10:50:32.103Z,140.62
2022-11-09T10:51:32.264Z,140.62
2022-11-09T10:52:32.377Z,135.00
2022-11-09T10:53:32.529Z,135.00
2022-11-09T10:54:32.714Z,135.00
2022-11-09T10:55:31.756Z,135.00
2022-11-09T10:56:41.777Z,135.00
2022-11-09T10:57:33.034Z,135.00
2022-11-09T10:58:32.184Z,135.00
2022-11-09T10:59:32.345Z,135.00
2022-11-09T11:00:32.518Z,135.00
2022-11-09T11:01:32.720Z,135.00
2022-11-09T11:02:31.702Z,135.00
2022-11-09T11:03:31.845Z,135.00
2022-11-09T11:04:31.966Z,135.00
2022-11-09T11:05:32.125Z,135.00
2022-11-09T11:06:32.541Z,135.00
2022-11-09T11:07:32.443Z,140.62
2022-11-09T11:08:32.531Z,140.62
2022-11-09T11:09:32.653Z,140.62
2022-11-09T11:10:31.762Z,140.62
2022-11-09T11:11:34.941Z,140.62
2022-11-09T11:12:32.103Z,140.62
2022-11-09T11:13:32.250Z,140.62
2022-11-09T11:14:32.389Z,140.62
2022-11-09T11:15:32.557Z,140.62
2022-11-09T11:16:31.659Z,146.25
2022-11-09T11:17:31.788Z,146.25
2022-11-09T11:18:31.966Z,146.25
2022-11-09T11:19:32.063Z,146.25
2022-11-09T11:20:32.167Z,151.88
2022-11-09T11:21:32.287Z,157.50
2022-11-09T11:22:32.467Z,157.50
2022-11-09T11:23:31.580Z,151.88
2022-11-09T11:24:31.761Z,151.88
2022-11-09T11:25:31.850Z,151.88
2022-11-09T11:26:31.981Z,157.50
2022-11-09T11:27:32.121Z,157.50
2022-11-09T11:28:32.280Z,157.50
2022-11-09T11:29:31.381Z,157.50
2022-11-09T11:30:31.556Z,157.50
2022-11-09T11:31:31.653Z,157.50
2022-11-09T11:32:31.823Z,157.50
2022-11-09T11:33:31.900Z,157.50
2022-11-09T11:34:57.876Z,163.12
2022-11-09T11:35:33.534Z,163.12
2022-11-09T11:36:31.252Z,168.75
2022-11-09T11:37:31.394Z,168.75
2022-11-09T11:38:31.491Z,168.75
2022-11-09T11:39:31.651Z,168.75
2022-11-09T11:40:31.735Z,168.75
2022-11-09T11:41:31.912Z,168.75
2022-11-09T11:42:31.971Z,168.75
2022-11-09T11:43:32.084Z,168.75
2022-11-09T11:44:32.231Z,174.38
2022-11-09T11:45:40.611Z,168.75
2022-11-09T11:46:32.441Z,168.75
2022-11-09T11:47:31.556Z,168.75
2022-11-09T11:48:31.645Z,174.38
2022-11-09T11:49:31.794Z,174.38
2022-11-09T11:50:31.944Z,174.38
2022-11-09T11:51:32.073Z,174.38
2022-11-09T11:52:31.188Z,168.75
2022-11-09T11:53:31.246Z,163.12
2022-11-09T11:54:31.362Z,157.50
2022-11-09T11:55:31.496Z,151.88
2022-11-09T11:56:31.608Z,151.88
2022-11-09T11:57:31.784Z,146.25
2022-11-09T11:58:31.854Z,140.62
2022-11-09T11:59:30.977Z,135.00
2022-11-09T12:00:31.103Z,129.38
2022-11-09T12:01:31.215Z,123.75
2022-11-09T12:02:31.372Z,118.12
2022-11-09T12:03:31.486Z,118.12
2022-11-09T12:04:32.395Z,123.75
2022-11-09T12:05:31.735Z,123.75
2022-11-09T12:06:30.893Z,118.12
2022-11-09T12:07:30.965Z,118.12
2022-11-09T12:08:31.094Z,118.12
2022-11-09T12:09:31.375Z,118.12
2022-11-09T12:10:31.338Z,118.12
2022-11-09T12:11:31.473Z,123.75
2022-11-09T12:12:31.615Z,123.75
2022-11-09T12:13:30.695Z,123.75
2022-11-09T12:14:31.874Z,123.75
2022-11-09T12:15:30.986Z,129.38
2022-11-09T12:16:31.123Z,129.38
2022-11-09T12:17:31.242Z,129.38
2022-11-09T12:18:31.355Z,129.38
2022-11-09T12:19:35.311Z,135.00
2022-11-09T12:20:31.631Z,135.00
2022-11-09T12:21:30.669Z,140.62
2022-11-09T12:22:30.757Z,140.62
2022-11-09T12:23:31.909Z,146.25
2022-11-09T12:24:31.944Z,140.62
2022-11-09T12:25:31.076Z,146.25
2022-11-09T12:26:31.250Z,146.25
2022-11-09T12:27:32.832Z,146.25
2022-11-09T12:28:31.428Z,146.25
2022-11-09T12:29:31.537Z,151.88
2022-11-09T12:30:30.618Z,146.25
2022-11-09T12:31:30.744Z,140.62
2022-11-09T12:32:30.896Z,135.00
2022-11-09T12:33:35.449Z,135.00
2022-11-09T12:34:32.067Z,135.00
2022-11-09T12:35:31.217Z,135.00
2022-11-09T12:36:31.393Z,129.38
2022-11-09T12:37:30.439Z,129.38
2022-11-09T12:38:30.738Z,129.38
2022-11-09T12:39:30.695Z,129.38
2022-11-09T12:40:30.789Z,123.75
2022-11-09T12:41:30.937Z,123.75
2022-11-09T12:42:31.041Z,123.75
2022-11-09T12:43:31.195Z,123.75
2022-11-09T12:44:31.339Z,129.38
2022-11-09T12:45:31.397Z,129.38
2022-11-09T12:46:30.498Z,129.38
2022-11-09T12:47:30.631Z,135.00
2022-11-09T12:48:30.748Z,140.62
2022-11-09T12:49:30.898Z,140.62
2022-11-09T12:50:30.959Z,146.25
2022-11-09T12:51:31.100Z,146.25
2022-11-09T12:52:30.184Z,151.88
2022-11-09T12:53:30.293Z,151.88
2022-11-09T12:54:31.377Z,151.88
2022-11-09T12:55:31.643Z,157.50
2022-11-09T12:56:30.685Z,157.50